Time;durP1;ratioP1;P1;durP2;ratioP2;P2;SDS_P1;SDS_P2;PMS_P1;PMS_P2;Temp;Humidity;BMP_temperature;BMP_pressure;BME280_temperature;BME280_humidity;BME280_pressure;Samples;Min_cycle;Max_cycle;Signal;HPM_P1;HPM_P2
2022/03/01 00:01:53;;;;;;;9.48;7.65;;;1.80;78.80;;;;;;6097615;23;20184;-73
2022/03/01 00:04:20;;;;;;;12.55;8.98;;;1.80;79.10;;;;;;6092789;23;20205;-73
2022/03/01 00:06:47;;;;;;;11.50;7.85;;;1.80;79.20;;;;;;6090735;23;20276;-72
2022/03/01 00:09:14;;;;;;;10.38;8.15;;;1.80;79.30;;;;;;6095309;23;20747;-73
2022/03/01 00:11:41;;;;;;;11.32;8.50;;;1.70;79.50;;;;;;6098624;23;20276;-73
2022/03/01 00:14:08;;;;;;;10.60;8.60;;;1.70;79.80;;;;;;6085464;23;20291;-72
2022/03/01 00:16:37;;;;;;;13.25;9.18;;;1.70;79.80;;;;;;6089156;23;20628;-73
2022/03/01 00:19:04;;;;;;;10.93;8.32;;;1.60;80.10;;;;;;6094597;23;20191;-73
2022/03/01 00:21:31;;;;;;;11.10;8.43;;;1.60;80.70;;;;;;6109360;23;20202;-73
2022/03/01 00:23:58;;;;;;;12.25;8.98;;;1.50;80.90;;;;;;6103527;23;20670;-72
2022/03/01 00:26:25;;;;;;;10.48;8.20;;;1.50;81.10;;;;;;6092503;23;20215;-73
2022/03/01 00:28:52;;;;;;;10.82;8.45;;;1.50;81.20;;;;;;6096046;23;20180;-73
2022/03/01 00:31:19;;;;;;;11.85;8.10;;;1.40;81.30;;;;;;6102415;23;20260;-73
2022/03/01 00:33:48;;;;;;;11.95;8.43;;;1.40;81.60;;;;;;6094090;23;20207;-73
2022/03/01 00:36:15;;;;;;;13.38;9.32;;;1.40;82.00;;;;;;6109444;23;20179;-72
2022/03/01 00:38:42;;;;;;;12.75;8.65;;;1.40;82.20;;;;;;6092541;23;20667;-72
2022/03/01 00:41:09;;;;;;;14.30;8.40;;;1.40;82.50;;;;;;6100393;23;20185;-73
2022/03/01 00:43:36;;;;;;;9.95;8.20;;;1.30;82.60;;;;;;6101425;23;20254;-72
2022/03/01 00:46:04;;;;;;;12.27;8.32;;;1.30;83.00;;;;;;6104080;23;20259;-73
2022/03/01 00:48:31;;;;;;;11.25;8.75;;;1.30;83.30;;;;;;6090648;23;20403;-73
2022/03/01 00:50:59;;;;;;;13.00;8.40;;;1.30;83.70;;;;;;6094266;23;20227;-73
2022/03/01 00:53:26;;;;;;;12.65;8.80;;;1.30;84.10;;;;;;6090724;23;20278;-73
2022/03/01 00:55:53;;;;;;;11.15;8.05;;;1.20;84.30;;;;;;6104078;23;20262;-73
2022/03/01 00:58:20;;;;;;;14.70;9.23;;;1.20;84.70;;;;;;6108114;23;21578;-72
2022/03/01 01:00:47;;;;;;;10.98;8.80;;;1.10;85.10;;;;;;6096296;23;20723;-72
2022/03/01 01:03:14;;;;;;;11.38;9.38;;;1.10;85.60;;;;;;6091909;23;20282;-73
2022/03/01 01:05:41;;;;;;;12.80;9.18;;;1.00;85.80;;;;;;6095965;23;20216;-73
2022/03/01 01:08:09;;;;;;;11.20;8.40;;;1.00;86.10;;;;;;6091867;23;20197;-73
2022/03/01 01:10:36;;;;;;;13.07;8.98;;;1.00;86.40;;;;;;6087308;23;20223;-73
2022/03/01 01:13:03;;;;;;;11.65;9.40;;;1.00;86.70;;;;;;6104483;23;20560;-73
2022/03/01 01:15:30;;;;;;;10.93;8.45;;;1.00;86.90;;;;;;6096693;23;20242;-72
2022/03/01 01:17:58;;;;;;;10.75;8.18;;;1.00;86.90;;;;;;6111347;23;20187;-72
2022/03/01 01:20:25;;;;;;;13.50;8.85;;;1.00;87.50;;;;;;6097519;23;20194;-72
2022/03/01 01:22:52;;;;;;;11.13;8.85;;;1.00;87.80;;;;;;6090446;23;20208;-72
2022/03/01 01:25:22;;;;;;;11.98;8.93;;;1.00;88.20;;;;;;6099362;23;20255;-73
2022/03/01 01:27:52;;;;;;;11.38;8.70;;;1.00;88.60;;;;;;6094853;23;20429;-75
2022/03/01 01:30:22;;;;;;;13.30;9.18;;;1.00;89.00;;;;;;6092417;23;20286;-73
2022/03/01 01:32:50;;;;;;;11.18;8.52;;;1.00;89.40;;;;;;6094588;23;20258;-72
2022/03/01 01:35:19;;;;;;;12.30;8.88;;;0.90;89.80;;;;;;6093622;23;20263;-72
2022/03/01 01:37:47;;;;;;;9.98;8.43;;;0.90;90.10;;;;;;6089978;23;20184;-73
2022/03/01 01:40:16;;;;;;;10.68;7.95;;;0.90;90.20;;;;;;6104330;23;20188;-73
2022/03/01 01:42:45;;;;;;;13.38;8.75;;;0.90;90.30;;;;;;6108096;23;20286;-73
2022/03/01 01:45:12;;;;;;;13.27;8.90;;;0.90;90.40;;;;;;6097731;23;20263;-73
2022/03/01 01:47:40;;;;;;;10.25;9.10;;;0.90;90.50;;;;;;6101052;23;20279;-73
2022/03/01 01:50:08;;;;;;;13.32;9.55;;;0.80;90.70;;;;;;6105809;23;20214;-72
2022/03/01 01:52:36;;;;;;;10.82;8.25;;;0.80;90.80;;;;;;6101561;23;20254;-72
2022/03/01 01:55:04;;;;;;;14.27;10.48;;;0.80;91.10;;;;;;6098571;23;20690;-72
2022/03/01 01:57:31;;;;;;;12.50;9.65;;;0.70;91.30;;;;;;6087646;23;20196;-72
2022/03/01 02:00:01;;;;;;;12.23;8.40;;;0.70;91.40;;;;;;6106822;23;20194;-72
2022/03/01 02:02:28;;;;;;;13.07;9.63;;;0.60;91.40;;;;;;6091337;23;20243;-73
2022/03/01 02:04:55;;;;;;;12.00;8.70;;;0.60;91.60;;;;;;6082852;23;20224;-73
2022/03/01 02:07:22;;;;;;;10.98;8.48;;;0.60;91.70;;;;;;6096144;23;20233;-72
2022/03/01 02:09:49;;;;;;;12.90;8.52;;;0.60;91.80;;;;;;6097904;23;20188;-72
2022/03/01 02:12:16;;;;;;;11.23;8.35;;;0.60;92.10;;;;;;6108783;23;20605;-72
2022/03/01 02:14:44;;;;;;;13.98;10.15;;;0.50;92.20;;;;;;6095023;23;20331;-73
2022/03/01 02:17:13;;;;;;;14.35;9.85;;;0.50;92.40;;;;;;6098094;23;20271;-72
2022/03/01 02:19:48;;;;;;;12.75;9.25;;;0.50;92.50;;;;;;6098727;23;20188;-73
2022/03/01 02:22:18;;;;;;;11.68;9.07;;;0.50;92.60;;;;;;6112099;23;20692;-73
2022/03/01 02:24:45;;;;;;;10.38;9.00;;;0.30;92.80;;;;;;6092978;23;20184;-72
2022/03/01 02:27:13;;;;;;;13.07;8.50;;;0.20;93.10;;;;;;6091596;23;20199;-73
2022/03/01 02:29:40;;;;;;;13.57;9.65;;;0.20;93.50;;;;;;6082598;23;20193;-72
2022/03/01 02:32:09;;;;;;;12.65;9.27;;;0.20;93.80;;;;;;6090516;23;20218;-73
2022/03/01 02:34:36;;;;;;;11.38;8.35;;;0.10;93.90;;;;;;6095609;23;20180;-73
2022/03/01 02:37:05;;;;;;;11.10;9.00;;;0.10;94.00;;;;;;6098511;23;20180;-70
2022/03/01 02:39:33;;;;;;;11.77;9.20;;;0.10;94.10;;;;;;6088250;23;20188;-71
2022/03/01 02:42:00;;;;;;;14.50;9.57;;;0.00;94.20;;;;;;6094104;23;20212;-71
2022/03/01 02:44:27;;;;;;;12.50;9.02;;;0.00;94.30;;;;;;6086658;23;20263;-72
2022/03/01 02:46:54;;;;;;;11.57;8.85;;;0.00;94.50;;;;;;6078435;23;20189;-72
2022/03/01 02:49:21;;;;;;;13.32;9.15;;;0.00;94.60;;;;;;6095258;23;20267;-72
2022/03/01 02:51:48;;;;;;;11.75;8.98;;;0.00;94.70;;;;;;6094772;23;20292;-72
2022/03/01 02:54:16;;;;;;;10.70;8.25;;;0.00;94.60;;;;;;6094008;23;20204;-72
2022/03/01 02:56:44;;;;;;;12.25;9.18;;;0.10;94.60;;;;;;6101860;23;20183;-72
2022/03/01 02:59:11;;;;;;;12.75;9.30;;;0.00;94.70;;;;;;6097766;23;20267;-71
2022/03/01 03:01:38;;;;;;;14.68;10.05;;;0.00;94.70;;;;;;6086461;23;20263;-72
2022/03/01 03:04:05;;;;;;;15.23;9.77;;;0.00;94.70;;;;;;6084697;23;20181;-71
2022/03/01 03:06:32;;;;;;;10.90;8.45;;;-0.10;94.80;;;;;;6091285;23;20196;-72
2022/03/01 03:09:00;;;;;;;11.55;8.90;;;-0.10;95.00;;;;;;6093706;23;20188;-72
2022/03/01 03:11:26;;;;;;;12.30;9.82;;;0.00;95.10;;;;;;6088870;23;20283;-72
2022/03/01 03:13:55;;;;;;;12.60;9.38;;;-0.10;95.00;;;;;;6093715;23;20188;-72
2022/03/01 03:16:22;;;;;;;11.85;9.15;;;-0.20;95.20;;;;;;6092396;23;20266;-72
2022/03/01 03:18:49;;;;;;;10.90;9.13;;;-0.10;95.40;;;;;;6103539;23;20246;-72
2022/03/01 03:21:16;;;;;;;13.18;9.88;;;-0.20;95.40;;;;;;6075186;23;20196;-73
2022/03/01 03:23:43;;;;;;;12.00;8.95;;;-0.10;95.60;;;;;;6088575;23;20532;-72
2022/03/01 03:26:10;;;;;;;12.23;8.75;;;-0.20;95.60;;;;;;6090526;23;20263;-72
2022/03/01 03:28:37;;;;;;;13.23;9.73;;;-0.20;95.60;;;;;;6104576;23;20646;-71
2022/03/01 03:31:06;;;;;;;13.75;9.55;;;-0.10;95.60;;;;;;6077720;23;20291;-72
2022/03/01 03:33:33;;;;;;;12.13;9.40;;;-0.10;95.60;;;;;;6090001;23;20204;-72
2022/03/01 03:36:00;;;;;;;15.35;9.80;;;-0.10;95.50;;;;;;6098958;23;20654;-72
2022/03/01 03:38:28;;;;;;;11.25;8.77;;;-0.10;95.40;;;;;;6094917;23;20188;-72
2022/03/01 03:40:55;;;;;;;13.98;9.60;;;-0.10;95.50;;;;;;6082486;23;20195;-71
2022/03/01 03:43:22;;;;;;;13.27;9.13;;;-0.10;95.50;;;;;;6098406;23;20684;-71
2022/03/01 03:45:49;;;;;;;13.07;9.45;;;-0.20;95.60;;;;;;6089916;23;20199;-71
2022/03/01 03:48:18;;;;;;;10.82;8.50;;;-0.20;95.60;;;;;;6090316;23;20262;-72
2022/03/01 03:50:45;;;;;;;14.48;9.70;;;-0.20;95.50;;;;;;6089154;23;21041;-72
2022/03/01 03:53:12;;;;;;;11.98;8.82;;;-0.20;95.60;;;;;;6107727;23;20207;-73
2022/03/01 03:55:39;;;;;;;14.10;9.98;;;-0.30;95.70;;;;;;6076621;23;20189;-71
2022/03/01 03:58:06;;;;;;;12.32;9.15;;;-0.30;95.80;;;;;;6116846;23;20203;-71
2022/03/01 04:00:33;;;;;;;10.20;8.15;;;-0.30;96.00;;;;;;6095076;23;20300;-71
2022/03/01 04:03:00;;;;;;;13.88;9.95;;;-0.30;95.90;;;;;;6090045;23;20683;-72
2022/03/01 04:05:28;;;;;;;13.25;9.07;;;-0.30;95.80;;;;;;6107450;23;20263;-71
2022/03/01 04:07:55;;;;;;;12.45;9.57;;;-0.30;95.70;;;;;;6119220;23;20223;-71
2022/03/01 04:10:22;;;;;;;11.48;8.77;;;-0.20;95.90;;;;;;6097705;23;20184;-71
2022/03/01 04:12:50;;;;;;;11.50;9.00;;;-0.20;95.80;;;;;;6108437;23;20227;-71
2022/03/01 04:15:16;;;;;;;12.48;9.50;;;-0.20;95.60;;;;;;6103904;23;20230;-71
2022/03/01 04:17:43;;;;;;;10.52;9.00;;;-0.20;95.70;;;;;;6091953;23;20264;-71
2022/03/01 04:20:11;;;;;;;10.43;7.65;;;-0.20;95.70;;;;;;6098853;23;20208;-72
2022/03/01 04:22:40;;;;;;;13.25;9.18;;;-0.20;95.80;;;;;;6100367;23;20211;-72
2022/03/01 04:25:09;;;;;;;11.57;9.35;;;-0.20;95.70;;;;;;6092860;23;20219;-71
2022/03/01 04:27:36;;;;;;;13.43;9.35;;;-0.20;95.70;;;;;;6097197;23;20192;-72
2022/03/01 04:30:04;;;;;;;13.18;9.82;;;-0.30;95.80;;;;;;6089843;23;20271;-72
2022/03/01 04:32:34;;;;;;;12.32;8.95;;;-0.30;95.80;;;;;;6089541;23;20266;-72
2022/03/01 04:35:02;;;;;;;11.73;8.88;;;-0.40;96.00;;;;;;6099589;23;20188;-71
2022/03/01 04:37:29;;;;;;;13.05;9.68;;;-0.50;96.00;;;;;;6077964;23;20276;-71
2022/03/01 04:39:57;;;;;;;13.45;9.65;;;-0.60;96.30;;;;;;6102322;23;20190;-71
2022/03/01 04:42:25;;;;;;;12.18;9.25;;;-0.60;96.60;;;;;;6108885;23;20294;-71
2022/03/01 04:44:52;;;;;;;12.10;9.73;;;-0.70;97.00;;;;;;6097142;23;20184;-71
2022/03/01 04:47:19;;;;;;;12.77;9.23;;;-0.80;97.20;;;;;;6090979;23;20306;-71
2022/03/01 04:49:46;;;;;;;12.13;9.80;;;-0.80;97.40;;;;;;6092839;23;20267;-71
2022/03/01 04:52:13;;;;;;;11.48;8.85;;;-0.80;97.60;;;;;;6104252;23;20233;-72
2022/03/01 04:54:40;;;;;;;12.52;9.20;;;-0.80;97.70;;;;;;6100167;23;20228;-72
2022/03/01 04:57:09;;;;;;;13.10;10.18;;;-0.80;97.80;;;;;;6111444;23;20303;-72
2022/03/01 04:59:36;;;;;;;12.88;9.52;;;-0.80;97.80;;;;;;6104824;23;20223;-71
2022/03/01 05:02:04;;;;;;;13.63;9.70;;;-0.80;97.80;;;;;;6091509;23;20215;-72
2022/03/01 05:04:31;;;;;;;11.75;9.93;;;-0.90;98.00;;;;;;6104317;23;20196;-71
2022/03/01 05:06:58;;;;;;;11.40;9.73;;;-0.90;98.10;;;;;;6110604;23;20212;-71
2022/03/01 05:09:25;;;;;;;12.30;9.05;;;-0.90;98.10;;;;;;6099298;23;20640;-71
2022/03/01 05:11:53;;;;;;;13.52;10.25;;;-1.00;98.20;;;;;;6100647;23;20896;-70
2022/03/01 05:14:21;;;;;;;12.27;10.13;;;-1.00;98.40;;;;;;6117000;23;20188;-71
2022/03/01 05:16:48;;;;;;;12.32;9.10;;;-1.00;98.60;;;;;;6108381;23;20266;-70
2022/03/01 05:19:16;;;;;;;12.20;8.98;;;-1.00;98.70;;;;;;6098352;23;20185;-71
2022/03/01 05:21:43;;;;;;;12.77;10.25;;;-1.00;98.70;;;;;;6099798;23;20714;-71
2022/03/01 05:24:10;;;;;;;13.30;9.95;;;-1.10;98.80;;;;;;6089417;23;20222;-72
2022/03/01 05:26:38;;;;;;;13.40;9.82;;;-1.00;98.80;;;;;;6093390;23;20699;-71
2022/03/01 05:29:07;;;;;;;15.70;9.52;;;-1.00;98.80;;;;;;6095226;23;20685;-72
2022/03/01 05:31:35;;;;;;;13.98;9.57;;;-1.00;98.60;;;;;;6089873;23;20674;-72
2022/03/01 05:34:02;;;;;;;12.40;9.13;;;-0.70;98.50;;;;;;6088764;23;20184;-71
2022/03/01 05:36:29;;;;;;;11.80;9.27;;;-0.90;98.40;;;;;;6088963;23;20189;-72
2022/03/01 05:38:56;;;;;;;13.02;9.60;;;-0.90;98.40;;;;;;6090809;23;20214;-73
2022/03/01 05:41:24;;;;;;;12.05;9.85;;;-0.80;98.30;;;;;;6088033;23;20203;-72
2022/03/01 05:43:50;;;;;;;13.32;9.68;;;-0.60;98.10;;;;;;6089079;23;20204;-71
2022/03/01 05:46:17;;;;;;;15.25;9.55;;;-0.60;97.80;;;;;;6095212;23;20214;-71
2022/03/01 05:48:46;;;;;;;12.90;9.38;;;-0.60;97.70;;;;;;6105804;23;20190;-71
2022/03/01 05:51:13;;;;;;;13.13;9.73;;;-0.70;97.50;;;;;;6106034;23;20207;-71
2022/03/01 05:53:41;;;;;;;11.18;9.10;;;-0.70;97.50;;;;;;6092692;23;20626;-71
2022/03/01 05:56:08;;;;;;;12.23;9.25;;;-0.70;97.40;;;;;;6102172;23;20597;-71
2022/03/01 05:58:34;;;;;;;12.23;10.35;;;-0.80;97.40;;;;;;6068689;23;20642;-71
2022/03/01 06:01:01;;;;;;;13.48;9.55;;;-0.80;97.50;;;;;;6088326;23;20190;-71
2022/03/01 06:03:28;;;;;;;11.13;9.02;;;-0.90;97.70;;;;;;6110358;23;20192;-71
2022/03/01 06:05:57;;;;;;;12.98;10.00;;;-0.90;97.70;;;;;;6095379;23;20651;-71
2022/03/01 06:08:24;;;;;;;13.18;9.10;;;-1.00;97.90;;;;;;6101753;23;20219;-71
2022/03/01 06:10:51;;;;;;;11.35;9.40;;;-1.00;97.80;;;;;;6095307;23;20184;-72
2022/03/01 06:13:18;;;;;;;13.30;9.43;;;-1.00;97.90;;;;;;6097742;23;20219;-71
2022/03/01 06:15:48;;;;;;;12.93;9.25;;;-1.00;98.00;;;;;;6095664;23;20189;-72
2022/03/01 06:18:16;;;;;;;13.35;9.40;;;-1.00;98.10;;;;;;6105556;23;20794;-72
2022/03/01 06:20:44;;;;;;;13.50;9.82;;;-1.00;98.00;;;;;;6087160;23;20180;-71
2022/03/01 06:23:13;;;;;;;15.68;9.88;;;-1.00;98.10;;;;;;6089680;23;20283;-70
2022/03/01 06:25:42;;;;;;;12.18;9.38;;;-1.00;98.00;;;;;;6095534;23;20267;-72
2022/03/01 06:28:09;;;;;;;11.68;9.20;;;-0.90;98.00;;;;;;6093764;23;20185;-72
2022/03/01 06:30:36;;;;;;;14.25;9.77;;;-0.80;97.90;;;;;;6102871;23;20591;-71
2022/03/01 06:33:03;;;;;;;9.95;8.73;;;-0.60;97.90;;;;;;6100539;23;20302;-72
2022/03/01 06:35:30;;;;;;;12.10;8.82;;;-0.30;97.30;;;;;;6094098;23;20272;-71
2022/03/01 06:37:57;;;;;;;13.00;9.55;;;0.10;96.60;;;;;;6091857;23;20636;-72
2022/03/01 06:40:28;;;;;;;12.75;9.50;;;0.40;96.00;;;;;;6092088;23;20180;-71
2022/03/01 06:42:54;;;;;;;11.00;8.63;;;0.80;95.50;;;;;;6088405;23;20200;-70
2022/03/01 06:45:22;;;;;;;12.57;8.50;;;1.20;94.50;;;;;;6082348;23;20598;-71
2022/03/01 06:47:50;;;;;;;15.70;8.80;;;1.50;93.70;;;;;;6092612;23;20204;-70
2022/03/01 06:50:17;;;;;;;11.48;8.57;;;1.80;93.10;;;;;;6101991;23;20267;-71
2022/03/01 06:52:44;;;;;;;12.93;9.07;;;2.00;92.40;;;;;;6087723;23;20217;-69
2022/03/01 06:55:11;;;;;;;10.93;8.73;;;2.10;92.10;;;;;;6100794;23;20592;-71
2022/03/01 06:57:40;;;;;;;10.05;8.38;;;2.30;91.40;;;;;;6112170;23;20643;-70
2022/03/01 07:00:09;;;;;;;14.10;8.63;;;2.50;91.00;;;;;;6086461;23;20208;-71
2022/03/01 07:02:38;;;;;;;12.63;9.05;;;2.70;90.70;;;;;;6087104;23;20333;-71
2022/03/01 07:05:06;;;;;;;13.43;9.07;;;2.80;90.30;;;;;;6095448;23;20535;-83
2022/03/01 07:07:34;;;;;;;11.13;8.77;;;2.70;90.20;;;;;;6096770;23;20198;-82
2022/03/01 07:10:01;;;;;;;12.07;9.32;;;2.80;90.00;;;;;;6093718;23;20291;-71
2022/03/01 07:12:28;;;;;;;11.20;8.25;;;2.90;89.30;;;;;;6084112;23;20624;-72
2022/03/01 07:14:57;;;;;;;13.20;8.90;;;3.00;87.90;;;;;;6093319;23;20274;-71
2022/03/01 07:17:24;;;;;;;12.15;8.25;;;3.10;87.70;;;;;;6091280;23;20188;-74
2022/03/01 07:19:51;;;;;;;11.05;8.77;;;3.20;87.30;;;;;;6083618;23;20205;-71
2022/03/01 07:22:19;;;;;;;10.20;7.85;;;3.20;86.80;;;;;;6083914;23;20688;-71
2022/03/01 07:24:46;;;;;;;10.38;7.93;;;3.20;86.10;;;;;;6080136;23;20309;-78
2022/03/01 07:27:13;;;;;;;9.65;7.32;;;3.30;86.40;;;;;;6073007;23;20273;-70
2022/03/01 07:29:40;;;;;;;10.60;8.52;;;3.60;86.10;;;;;;6084431;23;20186;-71
2022/03/01 07:32:11;;;;;;;11.80;8.45;;;3.90;84.10;;;;;;6076529;23;20707;-71
2022/03/01 07:34:38;;;;;;;9.88;7.85;;;4.10;83.90;;;;;;6097605;23;20196;-72
2022/03/01 07:37:06;;;;;;;9.70;7.90;;;4.30;83.00;;;;;;6093441;23;20279;-70
2022/03/01 07:39:33;;;;;;;9.35;7.93;;;4.50;82.60;;;;;;6086359;23;20341;-72
2022/03/01 07:42:00;;;;;;;10.75;8.55;;;4.50;80.10;;;;;;6094951;23;20343;-70
2022/03/01 07:44:27;;;;;;;11.52;7.53;;;4.80;80.10;;;;;;6078698;23;20596;-72
2022/03/01 07:46:54;;;;;;;10.95;9.07;;;5.10;79.50;;;;;;6080071;23;20188;-71
2022/03/01 07:49:22;;;;;;;11.43;8.02;;;5.50;78.10;;;;;;6108282;23;20191;-71
2022/03/01 07:51:50;;;;;;;9.45;8.10;;;5.60;76.50;;;;;;6080248;23;20264;-70
2022/03/01 07:54:18;;;;;;;10.90;7.93;;;5.90;75.10;;;;;;6082186;23;20187;-72
2022/03/01 07:56:45;;;;;;;11.05;8.52;;;6.00;74.30;;;;;;6082295;23;20605;-73
2022/03/01 07:59:11;;;;;;;9.23;7.70;;;5.80;73.40;;;;;;6083930;23;20192;-72
2022/03/01 08:01:39;;;;;;;8.93;7.68;;;6.00;73.70;;;;;;6077736;23;20223;-72
2022/03/01 08:04:05;;;;;;;8.95;7.65;;;6.10;71.80;;;;;;6087775;23;20504;-72
2022/03/01 08:06:34;;;;;;;9.70;8.10;;;6.40;72.40;;;;;;6082181;23;20200;-73
2022/03/01 08:09:01;;;;;;;9.82;8.48;;;6.70;70.90;;;;;;6101454;23;20612;-72
2022/03/01 08:11:29;;;;;;;9.45;8.20;;;6.80;68.90;;;;;;6093529;23;20258;-71
2022/03/01 08:13:56;;;;;;;10.65;8.52;;;6.70;68.90;;;;;;6082651;23;20224;-71
2022/03/01 08:16:23;;;;;;;10.05;7.90;;;6.90;68.70;;;;;;6088864;23;20192;-72
2022/03/01 08:18:50;;;;;;;10.43;7.90;;;7.10;69.60;;;;;;6091997;23;20197;-72
2022/03/01 08:21:18;;;;;;;9.23;8.25;;;7.60;68.40;;;;;;6098797;23;20559;-72
2022/03/01 08:23:46;;;;;;;9.23;8.07;;;7.80;66.00;;;;;;6087092;23;20184;-73
2022/03/01 08:26:13;;;;;;;9.32;8.18;;;8.00;65.90;;;;;;6072194;23;20629;-72
2022/03/01 08:28:41;;;;;;;9.43;8.13;;;8.00;63.90;;;;;;6073896;23;20192;-72
2022/03/01 08:31:08;;;;;;;10.45;8.38;;;7.60;63.20;;;;;;6090663;23;20200;-72
2022/03/01 08:33:35;;;;;;;10.23;8.15;;;7.30;64.30;;;;;;6099180;23;20216;-72
2022/03/01 08:36:03;;;;;;;8.95;7.57;;;7.40;64.70;;;;;;6089627;23;20255;-72
2022/03/01 08:38:30;;;;;;;8.77;7.88;;;7.40;64.20;;;;;;6084252;23;21545;-73
2022/03/01 08:40:58;;;;;;;9.48;7.90;;;7.80;63.90;;;;;;6071794;23;20214;-73
2022/03/01 08:43:25;;;;;;;9.45;8.13;;;8.10;63.50;;;;;;6074674;23;20188;-73
2022/03/01 08:45:53;;;;;;;12.10;8.82;;;8.40;62.30;;;;;;6075887;23;20217;-73
2022/03/01 08:48:20;;;;;;;8.68;7.70;;;8.10;61.40;;;;;;6073782;23;21378;-73
2022/03/01 08:50:47;;;;;;;9.68;7.95;;;8.30;60.50;;;;;;6087797;23;20208;-73
2022/03/01 08:53:15;;;;;;;9.55;8.23;;;8.30;60.40;;;;;;6071862;23;20216;-73
2022/03/01 08:55:42;;;;;;;8.90;8.00;;;8.70;60.40;;;;;;6086506;23;20279;-73
2022/03/01 08:58:11;;;;;;;8.82;7.93;;;8.90;59.90;;;;;;6082246;23;20267;-73
2022/03/01 09:00:38;;;;;;;8.65;7.45;;;8.90;59.30;;;;;;6094108;23;20679;-73
2022/03/01 09:03:06;;;;;;;8.95;8.05;;;8.70;58.50;;;;;;6086866;23;20590;-76
2022/03/01 09:05:33;;;;;;;8.90;7.90;;;8.30;58.10;;;;;;6074538;23;20239;-73
2022/03/01 09:08:01;;;;;;;8.75;7.85;;;8.10;58.50;;;;;;6062169;23;20196;-73
2022/03/01 09:10:28;;;;;;;9.55;8.00;;;8.10;59.20;;;;;;6071895;23;20186;-72
2022/03/01 09:12:56;;;;;;;8.65;7.75;;;8.30;59.50;;;;;;6065524;23;20208;-73
2022/03/01 09:15:30;;;;;;;8.95;7.70;;;8.60;58.80;;;;;;6070023;23;20267;-73
2022/03/01 09:17:58;;;;;;;9.43;8.43;;;8.60;58.00;;;;;;6078750;23;20568;-73
2022/03/01 09:20:26;;;;;;;10.02;7.97;;;8.90;58.90;;;;;;6077903;23;20861;-73
2022/03/01 09:22:53;;;;;;;9.88;7.90;;;9.00;58.20;;;;;;6065233;23;20537;-72
2022/03/01 09:25:21;;;;;;;9.05;7.63;;;8.60;57.50;;;;;;6074346;23;20645;-83
2022/03/01 09:27:48;;;;;;;9.65;7.78;;;8.40;57.90;;;;;;6073647;23;20272;-72
2022/03/01 09:30:17;;;;;;;9.95;7.68;;;8.50;57.80;;;;;;6073902;23;20219;-72
2022/03/01 09:32:46;;;;;;;8.93;7.88;;;8.30;57.90;;;;;;6071842;23;20208;-72
2022/03/01 09:35:13;;;;;;;9.00;7.80;;;8.40;58.00;;;;;;6067707;23;20176;-73
2022/03/01 09:37:41;;;;;;;9.15;7.20;;;8.40;57.70;;;;;;6068422;23;20191;-74
2022/03/01 09:40:11;;;;;;;8.73;7.90;;;8.20;58.10;;;;;;6073869;23;20177;-73
2022/03/01 09:42:39;;;;;;;9.52;8.20;;;8.60;58.50;;;;;;6064759;23;20193;-74
2022/03/01 09:45:07;;;;;;;11.18;7.40;;;9.10;57.50;;;;;;6066265;23;20268;-74
2022/03/01 09:47:34;;;;;;;9.35;8.27;;;9.10;56.80;;;;;;6069654;23;20183;-73
2022/03/01 09:50:03;;;;;;;8.18;7.38;;;9.20;56.90;;;;;;6069729;23;20194;-74
2022/03/01 09:52:30;;;;;;;10.18;7.63;;;9.30;56.40;;;;;;6072399;23;20208;-75
2022/03/01 09:54:57;;;;;;;9.13;7.60;;;9.50;56.50;;;;;;6097584;23;20220;-74
2022/03/01 09:57:24;;;;;;;8.90;7.05;;;9.40;55.80;;;;;;6083950;23;20184;-74
2022/03/01 09:59:51;;;;;;;9.20;7.95;;;9.50;56.30;;;;;;6100692;23;20275;-74
2022/03/01 10:02:18;;;;;;;9.52;8.38;;;9.90;56.80;;;;;;6063494;23;20206;-75
2022/03/01 10:04:52;;;;;;;10.02;7.53;;;10.50;55.50;;;;;;6102552;23;20189;-74
2022/03/01 10:07:25;;;;;;;8.85;7.95;;;11.00;53.10;;;;;;6084292;23;20653;-74
2022/03/01 10:09:52;;;;;;;8.38;7.55;;;11.40;52.80;;;;;;6091579;23;20195;-75
2022/03/01 10:12:25;;;;;;;9.27;7.95;;;11.50;51.80;;;;;;6085918;23;20207;-74
2022/03/01 10:14:59;;;;;;;9.18;7.18;;;11.40;51.80;;;;;;6105336;23;20190;-75
2022/03/01 10:17:34;;;;;;;7.70;6.93;;;11.10;51.40;;;;;;6087109;23;20234;-75
2022/03/01 10:20:08;;;;;;;8.75;7.57;;;11.40;51.40;;;;;;6067771;23;20293;-73
2022/03/01 10:22:39;;;;;;;9.98;7.35;;;11.40;50.60;;;;;;6088355;23;20541;-74
2022/03/01 10:25:08;;;;;;;8.82;7.90;;;11.20;50.80;;;;;;6087364;23;20542;-74
2022/03/01 10:27:36;;;;;;;8.88;7.38;;;11.40;50.40;;;;;;6085446;23;20234;-74
2022/03/01 10:30:05;;;;;;;10.07;7.55;;;11.40;50.20;;;;;;6089699;23;20190;-74
2022/03/01 10:32:33;;;;;;;7.93;7.13;;;11.70;50.20;;;;;;6092394;23;20195;-75
2022/03/01 10:35:02;;;;;;;8.50;7.60;;;12.20;49.10;;;;;;6102214;23;20516;-75
2022/03/01 10:37:31;;;;;;;8.55;7.20;;;12.60;49.20;;;;;;6087715;23;20188;-75
2022/03/01 10:40:18;;;;;;;8.95;7.65;;;13.00;49.30;;;;;;6095279;23;20638;-73
2022/03/01 10:42:46;;;;;;;8.98;8.07;;;13.30;47.50;;;;;;6096088;23;20229;-74
2022/03/01 10:45:13;;;;;;;8.73;7.93;;;13.30;47.30;;;;;;6097432;23;20613;-74
2022/03/01 10:47:54;;;;;;;8.85;7.80;;;13.00;47.60;;;;;;6089329;23;20242;-74
2022/03/01 10:50:22;;;;;;;9.27;7.70;;;13.40;46.80;;;;;;6071510;23;20207;-75
2022/03/01 10:52:50;;;;;;;8.25;7.35;;;13.80;47.00;;;;;;6119080;23;20203;-74
2022/03/01 10:55:25;;;;;;;7.55;6.75;;;13.70;46.00;;;;;;6111317;23;20272;-75
2022/03/01 10:58:01;;;;;;;8.40;7.43;;;13.80;44.90;;;;;;6090952;23;20195;-75
2022/03/01 11:00:28;;;;;;;8.40;7.60;;;13.50;45.40;;;;;;6096101;23;20258;-74
2022/03/01 11:02:55;;;;;;;7.25;6.55;;;13.60;46.10;;;;;;6105533;23;20185;-75
2022/03/01 11:05:23;;;;;;;8.02;7.22;;;13.80;44.70;;;;;;6097255;23;20184;-75
2022/03/01 11:07:51;;;;;;;8.45;7.65;;;14.40;44.20;;;;;;6094481;23;20195;-75
2022/03/01 11:10:22;;;;;;;10.35;7.80;;;14.30;43.30;;;;;;6099169;23;20204;-75
2022/03/01 11:12:54;;;;;;;8.50;7.63;;;14.40;44.00;;;;;;6095280;23;20188;-75
2022/03/01 11:15:34;;;;;;;8.10;7.30;;;14.40;43.10;;;;;;6094192;23;20180;-74
2022/03/01 11:18:13;;;;;;;7.80;6.75;;;14.50;43.30;;;;;;6079563;23;20267;-75
2022/03/01 11:20:44;;;;;;;7.63;6.83;;;14.40;42.70;;;;;;6079412;23;20203;-75
2022/03/01 11:23:14;;;;;;;7.43;6.73;;;14.90;43.20;;;;;;6108476;23;20566;-75
2022/03/01 11:25:46;;;;;;;7.70;7.00;;;15.20;41.70;;;;;;6088580;23;20860;-75
2022/03/01 11:28:16;;;;;;;7.77;6.90;;;15.30;41.00;;;;;;6115344;23;20821;-75
2022/03/01 11:30:51;;;;;;;8.07;7.30;;;15.50;41.20;;;;;;6114630;23;20535;-75
2022/03/01 11:33:25;;;;;;;8.13;7.40;;;15.80;41.10;;;;;;6081603;23;20460;-76
2022/03/01 11:35:54;;;;;;;7.47;6.63;;;16.10;41.10;;;;;;6088057;23;20443;-75
2022/03/01 11:38:26;;;;;;;7.20;6.50;;;16.70;40.50;;;;;;6103854;23;20444;-75
2022/03/01 11:40:55;;;;;;;8.20;7.40;;;16.60;38.10;;;;;;6100272;23;20472;-75
2022/03/01 11:43:26;;;;;;;8.27;7.47;;;16.60;38.50;;;;;;6071105;23;20451;-75
2022/03/01 11:45:55;;;;;;;7.10;6.50;;;16.60;37.50;;;;;;6086368;23;20445;-75
2022/03/01 11:48:24;;;;;;;9.27;7.07;;;16.50;37.80;;;;;;6115759;23;20444;-76
2022/03/01 11:50:56;;;;;;;7.67;6.77;;;15.90;38.20;;;;;;6095359;23;20547;-76
2022/03/01 11:53:25;;;;;;;7.47;6.77;;;16.20;38.20;;;;;;6121072;23;20482;-76
2022/03/01 11:55:54;;;;;;;7.23;6.53;;;16.20;37.70;;;;;;6103927;23;20473;-75
2022/03/01 11:58:22;;;;;;;7.77;7.07;;;16.90;38.10;;;;;;6109782;23;20441;-76
2022/03/01 12:00:52;;;;;;;7.00;6.30;;;17.60;37.40;;;;;;6121210;23;20453;-76
2022/03/01 12:03:21;;;;;;;7.00;6.40;;;18.60;36.50;;;;;;6097496;23;20450;-76
2022/03/01 12:05:49;;;;;;;7.53;6.93;;;19.30;35.90;;;;;;6090930;23;20434;-76
2022/03/01 12:08:18;;;;;;;6.90;6.30;;;19.10;35.40;;;;;;6081160;23;20481;-76
2022/03/01 12:10:53;;;;;;;6.33;5.83;;;18.80;34.80;;;;;;6062684;23;20468;-76
2022/03/01 12:13:20;;;;;;;6.57;5.97;;;19.00;34.00;;;;;;6105417;23;20452;-76
2022/03/01 12:15:57;;;;;;;7.77;6.90;;;18.90;33.40;;;;;;6090634;23;20443;-75
2022/03/01 12:18:29;;;;;;;7.17;6.57;;;18.90;33.50;;;;;;6096436;23;20456;-76
2022/03/01 12:21:02;;;;;;;6.53;5.93;;;18.70;33.60;;;;;;6106196;23;20481;-76
2022/03/01 12:23:31;;;;;;;7.60;6.90;;;18.90;34.10;;;;;;6095134;23;20542;-76
2022/03/01 12:26:00;;;;;;;7.60;6.90;;;19.50;35.20;;;;;;6090660;23;20438;-76
2022/03/01 12:28:34;;;;;;;8.23;7.50;;;20.00;34.40;;;;;;6104927;23;20540;-75
2022/03/01 12:31:09;;;;;;;7.50;6.80;;;20.40;33.80;;;;;;6104608;23;20451;-76
2022/03/01 12:33:37;;;;;;;8.00;7.30;;;19.50;33.60;;;;;;6100396;23;20454;-75
2022/03/01 12:36:06;;;;;;;6.93;6.33;;;18.50;33.90;;;;;;6091337;23;20492;-76
2022/03/01 12:38:33;;;;;;;7.93;7.23;;;18.40;34.80;;;;;;6108809;23;20933;-76
2022/03/01 12:41:10;;;;;;;7.67;6.97;;;18.50;34.90;;;;;;6096946;23;20454;-76
2022/03/01 12:43:37;;;;;;;8.33;7.63;;;18.90;34.50;;;;;;6091717;23;20522;-76
2022/03/01 12:46:04;;;;;;;6.90;6.30;;;19.40;33.60;;;;;;6100313;23;20453;-76
2022/03/01 12:48:42;;;;;;;7.87;7.20;;;19.50;34.20;;;;;;6094662;23;20495;-76
2022/03/01 12:51:09;;;;;;;7.10;6.50;;;19.80;33.10;;;;;;6074098;23;20541;-76